sensor_id;sensor_type;location;lat;lon;timestamp;pressure;altitude;pressure_sealevel;temperature;humidity
81125;BME280;72192;52.114;5.424;2023-11-19T00:00:50;100911.69;;;12.60;100.00
81125;BME280;72192;52.114;5.424;2023-11-19T00:03:30;100898.66;;;12.55;100.00
81125;BME280;72192;52.114;5.424;2023-11-19T00:06:11;100894.44;;;12.53;100.00
81125;BME280;72192;52.114;5.424;2023-11-19T00:08:52;100903.03;;;12.56;100.00
81125;BME280;72192;52.114;5.424;2023-11-19T00:11:32;100892.88;;;12.58;100.00
81125;BME280;72192;52.114;5.424;2023-11-19T00:14:12;100874.94;;;12.57;100.00
81125;BME280;72192;52.114;5.424;2023-11-19T00:16:52;100881.19;;;12.58;100.00
81125;BME280;72192;52.114;5.424;2023-11-19T00:19:31;100893.56;;;12.60;100.00
81125;BME280;72192;52.114;5.424;2023-11-19T00:22:11;100886.97;;;12.55;100.00
81125;BME280;72192;52.114;5.424;2023-11-19T00:24:51;100892.88;;;12.58;100.00
81125;BME280;72192;52.114;5.424;2023-11-19T00:27:31;100890.84;;;12.60;100.00
81125;BME280;72192;52.114;5.424;2023-11-19T00:30:11;100877.63;;;12.57;100.00
81125;BME280;72192;52.114;5.424;2023-11-19T00:32:51;100870.72;;;12.55;100.00
81125;BME280;72192;52.114;5.424;2023-11-19T00:35:31;100878.66;;;12.56;100.00
81125;BME280;72192;52.114;5.424;2023-11-19T00:38:13;100863.63;;;12.54;100.00
81125;BME280;72192;52.114;5.424;2023-11-19T00:40:53;100872.75;;;12.53;100.00
81125;BME280;72192;52.114;5.424;2023-11-19T00:43:33;100874.44;;;12.54;100.00
81125;BME280;72192;52.114;5.424;2023-11-19T00:46:13;100879.50;;;12.57;100.00
81125;BME280;72192;52.114;5.424;2023-11-19T00:48:53;100868.34;;;12.60;100.00
81125;BME280;72192;52.114;5.424;2023-11-19T00:51:33;100865.28;;;12.63;100.00
81125;BME280;72192;52.114;5.424;2023-11-19T00:54:15;100857.97;;;12.63;100.00
81125;BME280;72192;52.114;5.424;2023-11-19T00:56:55;100844.25;;;12.65;100.00
81125;BME280;72192;52.114;5.424;2023-11-19T00:59:34;100849.69;;;12.65;100.00
81125;BME280;72192;52.114;5.424;2023-11-19T01:02:14;100858.81;;;12.64;100.00
81125;BME280;72192;52.114;5.424;2023-11-19T01:04:54;100856.97;;;12.64;100.00
81125;BME280;72192;52.114;5.424;2023-11-19T01:07:34;100848.00;;;12.64;100.00
81125;BME280;72192;52.114;5.424;2023-11-19T01:10:13;100851.34;;;12.66;100.00
81125;BME280;72192;52.114;5.424;2023-11-19T01:12:56;100857.63;;;12.67;100.00
81125;BME280;72192;52.114;5.424;2023-11-19T01:15:36;100860.31;;;12.67;100.00
81125;BME280;72192;52.114;5.424;2023-11-19T01:18:16;100863.38;;;12.72;100.00
81125;BME280;72192;52.114;5.424;2023-11-19T01:20:56;100850.13;;;12.77;100.00
81125;BME280;72192;52.114;5.424;2023-11-19T01:23:36;100839.28;;;12.77;100.00
81125;BME280;72192;52.114;5.424;2023-11-19T01:26:15;100842.16;;;12.75;100.00
81125;BME280;72192;52.114;5.424;2023-11-19T01:28:55;100834.78;;;12.69;100.00
81125;BME280;72192;52.114;5.424;2023-11-19T01:31:35;100835.63;;;12.70;100.00
81125;BME280;72192;52.114;5.424;2023-11-19T01:34:15;100816.66;;;12.70;100.00
81125;BME280;72192;52.114;5.424;2023-11-19T01:36:55;100817.50;;;12.70;100.00
81125;BME280;72192;52.114;5.424;2023-11-19T01:39:34;100837.97;;;12.73;100.00
81125;BME280;72192;52.114;5.424;2023-11-19T01:42:14;100829.47;;;12.76;100.00
81125;BME280;72192;52.114;5.424;2023-11-19T01:45:01;100833.38;;;12.73;100.00
81125;BME280;72192;52.114;5.424;2023-11-19T01:47:43;100837.31;;;12.71;100.00
81125;BME280;72192;52.114;5.424;2023-11-19T01:50:24;100853.75;;;12.69;100.00
81125;BME280;72192;52.114;5.424;2023-11-19T01:53:04;100832.06;;;12.69;100.00
81125;BME280;72192;52.114;5.424;2023-11-19T01:55:46;100838.97;;;12.72;100.00
81125;BME280;72192;52.114;5.424;2023-11-19T01:58:29;100839.34;;;12.69;100.00
81125;BME280;72192;52.114;5.424;2023-11-19T02:01:10;100834.78;;;12.69;100.00
81125;BME280;72192;52.114;5.424;2023-11-19T02:03:52;100842.72;;;12.71;100.00
81125;BME280;72192;52.114;5.424;2023-11-19T02:06:32;100833.06;;;12.68;100.00
81125;BME280;72192;52.114;5.424;2023-11-19T02:09:14;100826.31;;;12.64;100.00
81125;BME280;72192;52.114;5.424;2023-11-19T02:11:57;100824.50;;;12.56;100.00
81125;BME280;72192;52.114;5.424;2023-11-19T02:14:37;100820.97;;;12.48;100.00
81125;BME280;72192;52.114;5.424;2023-11-19T02:17:30;100827.31;;;12.40;100.00
81125;BME280;72192;52.114;5.424;2023-11-19T02:20:10;100826.13;;;12.34;100.00
81125;BME280;72192;52.114;5.424;2023-11-19T02:22:53;100831.38;;;12.28;100.00
81125;BME280;72192;52.114;5.424;2023-11-19T02:25:33;100843.78;;;12.22;100.00
81125;BME280;72192;52.114;5.424;2023-11-19T02:28:14;100847.16;;;12.16;100.00
81125;BME280;72192;52.114;5.424;2023-11-19T02:30:54;100848.72;;;12.11;100.00
81125;BME280;72192;52.114;5.424;2023-11-19T02:33:34;100852.13;;;12.04;100.00
81125;BME280;72192;52.114;5.424;2023-11-19T02:36:14;100861.44;;;12.02;100.00
81125;BME280;72192;52.114;5.424;2023-11-19T02:38:55;100856.69;;;11.96;100.00
81125;BME280;72192;52.114;5.424;2023-11-19T02:41:37;100850.44;;;11.95;100.00
81125;BME280;72192;52.114;5.424;2023-11-19T02:44:17;100842.88;;;11.91;100.00
81125;BME280;72192;52.114;5.424;2023-11-19T02:46:57;100853.16;;;11.87;100.00
81125;BME280;72192;52.114;5.424;2023-11-19T02:49:40;100838.47;;;11.82;100.00
81125;BME280;72192;52.114;5.424;2023-11-19T02:52:23;100838.78;;;11.78;100.00
81125;BME280;72192;52.114;5.424;2023-11-19T02:55:03;100828.31;;;11.75;100.00
81125;BME280;72192;52.114;5.424;2023-11-19T02:57:51;100845.72;;;11.73;100.00
81125;BME280;72192;52.114;5.424;2023-11-19T03:00:31;100845.06;;;11.71;100.00
81125;BME280;72192;52.114;5.424;2023-11-19T03:03:14;100844.53;;;11.67;100.00
81125;BME280;72192;52.114;5.424;2023-11-19T03:06:00;100834.56;;;11.60;100.00
81125;BME280;72192;52.114;5.424;2023-11-19T03:08:43;100835.28;;;11.54;100.00
81125;BME280;72192;52.114;5.424;2023-11-19T03:11:23;100835.75;;;11.49;100.00
81125;BME280;72192;52.114;5.424;2023-11-19T03:14:02;100829.84;;;11.54;100.00
81125;BME280;72192;52.114;5.424;2023-11-19T03:16:45;100833.75;;;11.51;100.00
81125;BME280;72192;52.114;5.424;2023-11-19T03:19:25;100846.56;;;11.49;100.00
81125;BME280;72192;52.114;5.424;2023-11-19T03:22:06;100845.41;;;11.43;100.00
81125;BME280;72192;52.114;5.424;2023-11-19T03:24:46;100848.59;;;11.39;100.00
81125;BME280;72192;52.114;5.424;2023-11-19T03:27:25;100853.03;;;11.32;100.00
81125;BME280;72192;52.114;5.424;2023-11-19T03:30:14;100840.16;;;11.26;100.00
81125;BME280;72192;52.114;5.424;2023-11-19T03:32:56;100840.34;;;11.24;100.00
81125;BME280;72192;52.114;5.424;2023-11-19T03:35:36;100837.63;;;11.24;100.00
81125;BME280;72192;52.114;5.424;2023-11-19T03:38:16;100829.72;;;11.23;100.00
81125;BME280;72192;52.114;5.424;2023-11-19T03:40:56;100826.66;;;11.17;100.00
81125;BME280;72192;52.114;5.424;2023-11-19T03:43:41;100819.56;;;11.16;100.00
81125;BME280;72192;52.114;5.424;2023-11-19T03:46:21;100815.16;;;11.07;100.00
81125;BME280;72192;52.114;5.424;2023-11-19T03:49:00;100818.69;;;11.00;100.00
81125;BME280;72192;52.114;5.424;2023-11-19T03:51:42;100824.78;;;10.94;100.00
81125;BME280;72192;52.114;5.424;2023-11-19T03:54:22;100829.66;;;10.90;100.00
81125;BME280;72192;52.114;5.424;2023-11-19T03:57:01;100834.56;;;10.86;100.00
81125;BME280;72192;52.114;5.424;2023-11-19T03:59:42;100834.91;;;10.83;100.00
81125;BME280;72192;52.114;5.424;2023-11-19T04:02:22;100839.44;;;10.83;100.00
81125;BME280;72192;52.114;5.424;2023-11-19T04:05:03;100844.50;;;10.86;100.00
81125;BME280;72192;52.114;5.424;2023-11-19T04:07:44;100842.81;;;10.85;100.00
81125;BME280;72192;52.114;5.424;2023-11-19T04:10:24;100842.81;;;10.77;100.00
81125;BME280;72192;52.114;5.424;2023-11-19T04:13:05;100857.31;;;10.76;100.00
81125;BME280;72192;52.114;5.424;2023-11-19T04:15:45;100852.09;;;10.74;100.00
81125;BME280;72192;52.114;5.424;2023-11-19T04:18:27;100859.84;;;10.77;100.00
81125;BME280;72192;52.114;5.424;2023-11-19T04:21:07;100850.06;;;10.76;100.00
81125;BME280;72192;52.114;5.424;2023-11-19T04:23:47;100860.03;;;10.76;100.00
81125;BME280;72192;52.114;5.424;2023-11-19T04:26:26;100859.00;;;10.77;100.00
81125;BME280;72192;52.114;5.424;2023-11-19T04:29:06;100874.19;;;10.78;100.00
81125;BME280;72192;52.114;5.424;2023-11-19T04:31:47;100844.66;;;10.76;100.00
81125;BME280;72192;52.114;5.424;2023-11-19T04:34:27;100854.63;;;10.76;100.00
81125;BME280;72192;52.114;5.424;2023-11-19T04:37:06;100849.56;;;10.73;100.00
81125;BME280;72192;52.114;5.424;2023-11-19T04:39:46;100842.47;;;10.72;100.00
81125;BME280;72192;52.114;5.424;2023-11-19T04:42:26;100851.06;;;10.75;100.00
81125;BME280;72192;52.114;5.424;2023-11-19T04:45:06;100858.84;;;10.78;100.00
81125;BME280;72192;52.114;5.424;2023-11-19T04:47:48;100852.41;;;10.79;100.00
81125;BME280;72192;52.114;5.424;2023-11-19T04:50:28;100856.31;;;10.77;100.00
81125;BME280;72192;52.114;5.424;2023-11-19T04:53:09;100853.09;;;10.73;100.00
81125;BME280;72192;52.114;5.424;2023-11-19T04:55:51;100846.00;;;10.72;100.00
81125;BME280;72192;52.114;5.424;2023-11-19T04:58:32;100839.22;;;10.68;100.00
81125;BME280;72192;52.114;5.424;2023-11-19T05:01:14;100845.31;;;10.70;100.00
81125;BME280;72192;52.114;5.424;2023-11-19T05:03:56;100844.97;;;10.65;100.00
81125;BME280;72192;52.114;5.424;2023-11-19T05:06:37;100849.16;;;10.59;100.00
81125;BME280;72192;52.114;5.424;2023-11-19T05:09:17;100858.28;;;10.58;100.00
81125;BME280;72192;52.114;5.424;2023-11-19T05:11:56;100867.72;;;10.54;100.00
81125;BME280;72192;52.114;5.424;2023-11-19T05:14:36;100874.97;;;10.54;100.00
81125;BME280;72192;52.114;5.424;2023-11-19T05:17:19;100875.28;;;10.51;100.00
81125;BME280;72192;52.114;5.424;2023-11-19T05:19:59;100867.03;;;10.52;100.00
81125;BME280;72192;52.114;5.424;2023-11-19T05:22:42;100862.50;;;10.53;100.00
81125;BME280;72192;52.114;5.424;2023-11-19T05:25:24;100854.84;;;10.48;100.00
81125;BME280;72192;52.114;5.424;2023-11-19T05:28:04;100856.88;;;10.46;100.00
81125;BME280;72192;52.114;5.424;2023-11-19T05:30:46;100851.13;;;10.41;100.00
81125;BME280;72192;52.114;5.424;2023-11-19T05:33:26;100853.97;;;10.40;100.00
81125;BME280;72192;52.114;5.424;2023-11-19T05:36:06;100852.28;;;10.39;100.00
81125;BME280;72192;52.114;5.424;2023-11-19T05:38:46;100857.22;;;10.43;100.00
81125;BME280;72192;52.114;5.424;2023-11-19T05:41:26;100852.66;;;10.44;100.00
81125;BME280;72192;52.114;5.424;2023-11-19T05:44:06;100859.22;;;10.41;100.00
81125;BME280;72192;52.114;5.424;2023-11-19T05:46:46;100863.47;;;10.44;100.00
81125;BME280;72192;52.114;5.424;2023-11-19T05:49:25;100869.69;;;10.44;100.00
81125;BME280;72192;52.114;5.424;2023-11-19T05:52:05;100860.22;;;10.40;100.00
81125;BME280;72192;52.114;5.424;2023-11-19T05:54:46;100855.84;;;10.39;100.00
81125;BME280;72192;52.114;5.424;2023-11-19T05:57:29;100864.59;;;10.41;100.00
81125;BME280;72192;52.114;5.424;2023-11-19T06:00:09;100866.28;;;10.34;100.00
81125;BME280;72192;52.114;5.424;2023-11-19T06:02:51;100861.06;;;10.32;100.00
81125;BME280;72192;52.114;5.424;2023-11-19T06:05:31;100866.59;;;10.31;100.00
81125;BME280;72192;52.114;5.424;2023-11-19T06:08:10;100855.97;;;10.29;100.00
81125;BME280;72192;52.114;5.424;2023-11-19T06:10:54;100867.81;;;10.37;100.00
81125;BME280;72192;52.114;5.424;2023-11-19T06:13:34;100862.75;;;10.33;100.00
81125;BME280;72192;52.114;5.424;2023-11-19T06:16:14;100854.66;;;10.33;100.00
81125;BME280;72192;52.114;5.424;2023-11-19T06:18:54;100854.47;;;10.35;100.00
81125;BME280;72192;52.114;5.424;2023-11-19T06:21:34;100861.19;;;10.31;100.00
81125;BME280;72192;52.114;5.424;2023-11-19T06:24:15;100855.78;;;10.31;100.00
81125;BME280;72192;52.114;5.424;2023-11-19T06:26:57;100859.16;;;10.25;100.00
81125;BME280;72192;52.114;5.424;2023-11-19T06:29:37;100868.25;;;10.24;100.00
81125;BME280;72192;52.114;5.424;2023-11-19T06:32:19;100860.44;;;10.21;100.00
81125;BME280;72192;52.114;5.424;2023-11-19T06:34:58;100881.50;;;10.17;100.00
81125;BME280;72192;52.114;5.424;2023-11-19T06:37:38;100877.28;;;10.15;100.00
81125;BME280;72192;52.114;5.424;2023-11-19T06:40:19;100888.25;;;10.13;100.00
81125;BME280;72192;52.114;5.424;2023-11-19T06:42:59;100871.88;;;10.15;100.00
81125;BME280;72192;52.114;5.424;2023-11-19T06:45:41;100884.38;;;10.16;100.00
81125;BME280;72192;52.114;5.424;2023-11-19T06:48:21;100890.06;;;10.13;100.00
81125;BME280;72192;52.114;5.424;2023-11-19T06:51:00;100893.94;;;10.10;100.00
81125;BME280;72192;52.114;5.424;2023-11-19T06:53:44;100894.44;;;10.05;100.00
81125;BME280;72192;52.114;5.424;2023-11-19T06:56:26;100895.09;;;10.07;100.00
81125;BME280;72192;52.114;5.424;2023-11-19T06:59:06;100904.22;;;10.06;100.00
81125;BME280;72192;52.114;5.424;2023-11-19T07:01:45;100907.06;;;10.05;100.00
81125;BME280;72192;52.114;5.424;2023-11-19T07:04:25;100898.66;;;10.08;100.00
81125;BME280;72192;52.114;5.424;2023-11-19T07:07:05;100903.56;;;10.13;100.00
81125;BME280;72192;52.114;5.424;2023-11-19T07:09:44;100907.47;;;10.18;100.00
81125;BME280;72192;52.114;5.424;2023-11-19T07:12:24;100907.06;;;10.23;100.00
81125;BME280;72192;52.114;5.424;2023-11-19T07:15:07;100916.13;;;10.22;100.00
81125;BME280;72192;52.114;5.424;2023-11-19T07:17:50;100906.47;;;10.19;100.00
81125;BME280;72192;52.114;5.424;2023-11-19T07:20:32;100916.13;;;10.22;100.00
81125;BME280;72192;52.114;5.424;2023-11-19T07:23:12;100915.81;;;10.25;100.00
81125;BME280;72192;52.114;5.424;2023-11-19T07:25:52;100922.25;;;10.32;100.00
81125;BME280;72192;52.114;5.424;2023-11-19T07:28:32;100925.66;;;10.34;100.00
81125;BME280;72192;52.114;5.424;2023-11-19T07:31:14;100920.78;;;10.38;100.00
81125;BME280;72192;52.114;5.424;2023-11-19T07:33:57;100923.47;;;10.38;100.00
81125;BME280;72192;52.114;5.424;2023-11-19T07:36:37;100936.81;;;10.39;100.00
81125;BME280;72192;52.114;5.424;2023-11-19T07:39:17;100932.25;;;10.40;100.00
81125;BME280;72192;52.114;5.424;2023-11-19T07:41:58;100934.09;;;10.39;100.00
81125;BME280;72192;52.114;5.424;2023-11-19T07:44:38;100926.56;;;10.43;100.00
81125;BME280;72192;52.114;5.424;2023-11-19T07:47:20;100928.91;;;10.46;100.00
81125;BME280;72192;52.114;5.424;2023-11-19T07:49:57;100919.66;;;10.48;100.00
81125;BME280;72192;52.114;5.424;2023-11-19T07:52:40;100925.88;;;10.49;100.00
81125;BME280;72192;52.114;5.424;2023-11-19T07:55:22;100931.84;;;10.52;100.00
81125;BME280;72192;52.114;5.424;2023-11-19T07:58:02;100921.53;;;10.56;100.00
81125;BME280;72192;52.114;5.424;2023-11-19T08:00:42;100917.34;;;10.61;100.00
81125;BME280;72192;52.114;5.424;2023-11-19T08:03:21;100918.22;;;10.62;100.00
81125;BME280;72192;52.114;5.424;2023-11-19T08:06:03;100920.56;;;10.65;100.00
81125;BME280;72192;52.114;5.424;2023-11-19T08:08:43;100920.06;;;10.70;100.00
81125;BME280;72192;52.114;5.424;2023-11-19T08:11:23;100921.13;;;10.77;100.00
81125;BME280;72192;52.114;5.424;2023-11-19T08:14:02;100925.19;;;10.81;100.00
81125;BME280;72192;52.114;5.424;2023-11-19T08:16:42;100922.16;;;10.84;100.00
81125;BME280;72192;52.114;5.424;2023-11-19T08:19:22;100931.41;;;10.81;100.00
81125;BME280;72192;52.114;5.424;2023-11-19T08:22:01;100934.13;;;10.81;100.00
81125;BME280;72192;52.114;5.424;2023-11-19T08:24:41;100932.81;;;10.85;100.00
81125;BME280;72192;52.114;5.424;2023-11-19T08:27:21;100909.16;;;10.87;100.00
81125;BME280;72192;52.114;5.424;2023-11-19T08:30:05;100914.56;;;10.87;100.00
81125;BME280;72192;52.114;5.424;2023-11-19T08:32:45;100922.34;;;10.90;100.00
81125;BME280;72192;52.114;5.424;2023-11-19T08:35:27;100923.38;;;10.98;100.00
81125;BME280;72192;52.114;5.424;2023-11-19T08:38:08;100934.72;;;11.09;100.00
81125;BME280;72192;52.114;5.424;2023-11-19T08:40:47;100942.66;;;11.11;100.00
81125;BME280;72192;52.114;5.424;2023-11-19T08:43:27;100935.28;;;11.21;100.00
81125;BME280;72192;52.114;5.424;2023-11-19T08:46:10;100940.84;;;11.28;100.00
81125;BME280;72192;52.114;5.424;2023-11-19T08:48:50;100939.00;;;11.28;99.42
81125;BME280;72192;52.114;5.424;2023-11-19T08:51:30;100942.22;;;11.32;99.93
81125;BME280;72192;52.114;5.424;2023-11-19T08:54:10;100946.44;;;11.34;99.59
81125;BME280;72192;52.114;5.424;2023-11-19T08:56:50;100934.44;;;11.37;99.13
81125;BME280;72192;52.114;5.424;2023-11-19T08:59:30;100943.75;;;11.42;99.09
81125;BME280;72192;52.114;5.424;2023-11-19T09:02:10;100944.25;;;11.46;98.45
81125;BME280;72192;52.114;5.424;2023-11-19T09:04:49;100948.00;;;11.61;98.57
81125;BME280;72192;52.114;5.424;2023-11-19T09:07:29;100943.59;;;11.76;97.54
81125;BME280;72192;52.114;5.424;2023-11-19T09:10:10;100941.06;;;11.75;97.13
81125;BME280;72192;52.114;5.424;2023-11-19T09:12:49;100933.31;;;11.72;96.85
81125;BME280;72192;52.114;5.424;2023-11-19T09:15:29;100943.28;;;11.71;97.11
81125;BME280;72192;52.114;5.424;2023-11-19T09:18:09;100924.16;;;11.73;96.89
81125;BME280;72192;52.114;5.424;2023-11-19T09:20:49;100920.28;;;11.75;96.80
81125;BME280;72192;52.114;5.424;2023-11-19T09:23:33;100928.22;;;11.77;95.98
81125;BME280;72192;52.114;5.424;2023-11-19T09:26:17;100935.50;;;11.76;96.51
81125;BME280;72192;52.114;5.424;2023-11-19T09:28:56;100940.22;;;11.74;96.62
81125;BME280;72192;52.114;5.424;2023-11-19T09:31:38;100930.44;;;11.73;96.78
81125;BME280;72192;52.114;5.424;2023-11-19T09:34:17;100944.78;;;11.74;96.51
81125;BME280;72192;52.114;5.424;2023-11-19T09:36:58;100937.53;;;11.74;96.29
81125;BME280;72192;52.114;5.424;2023-11-19T09:39:37;100933.13;;;11.73;96.58
81125;BME280;72192;52.114;5.424;2023-11-19T09:42:21;100940.44;;;11.81;96.63
81125;BME280;72192;52.114;5.424;2023-11-19T09:45:12;100945.50;;;11.92;96.50
81125;BME280;72192;52.114;5.424;2023-11-19T09:48:00;100934.69;;;12.00;95.84
81125;BME280;72192;52.114;5.424;2023-11-19T09:50:41;100945.34;;;12.02;95.86
81125;BME280;72192;52.114;5.424;2023-11-19T09:53:21;100928.25;;;12.01;94.94
81125;BME280;72192;52.114;5.424;2023-11-19T09:56:02;100929.28;;;12.00;95.29
81125;BME280;72192;52.114;5.424;2023-11-19T09:58:47;100929.09;;;12.02;94.82
81125;BME280;72192;52.114;5.424;2023-11-19T10:01:26;100920.13;;;12.01;95.32
81125;BME280;72192;52.114;5.424;2023-11-19T10:04:06;100920.63;;;12.05;94.87
81125;BME280;72192;52.114;5.424;2023-11-19T10:06:46;100917.38;;;12.18;94.86
81125;BME280;72192;52.114;5.424;2023-11-19T10:09:27;100928.84;;;12.36;93.78
81125;BME280;72192;52.114;5.424;2023-11-19T10:12:07;100901.91;;;12.43;93.36
81125;BME280;72192;52.114;5.424;2023-11-19T10:14:48;100910.50;;;12.54;93.00
81125;BME280;72192;52.114;5.424;2023-11-19T10:17:32;100906.38;;;12.67;92.18
81125;BME280;72192;52.114;5.424;2023-11-19T10:20:13;100897.59;;;12.64;91.39
81125;BME280;72192;52.114;5.424;2023-11-19T10:22:54;100891.97;;;12.74;91.37
81125;BME280;72192;52.114;5.424;2023-11-19T10:25:34;100893.75;;;12.90;90.97
81125;BME280;72192;52.114;5.424;2023-11-19T10:28:18;100894.47;;;13.07;90.27
81125;BME280;72192;52.114;5.424;2023-11-19T10:30:58;100882.47;;;13.09;89.97
81125;BME280;72192;52.114;5.424;2023-11-19T10:33:37;100898.59;;;13.03;89.19
81125;BME280;72192;52.114;5.424;2023-11-19T10:36:17;100884.19;;;13.02;88.80
81125;BME280;72192;52.114;5.424;2023-11-19T10:38:59;100884.56;;;12.99;88.62
81125;BME280;72192;52.114;5.424;2023-11-19T10:41:41;100872.19;;;12.97;89.01
81125;BME280;72192;52.114;5.424;2023-11-19T10:44:34;100875.50;;;13.07;89.02
81125;BME280;72192;52.114;5.424;2023-11-19T10:47:14;100880.41;;;13.11;89.06
81125;BME280;72192;52.114;5.424;2023-11-19T10:49:56;100889.38;;;13.20;88.26
81125;BME280;72192;52.114;5.424;2023-11-19T10:52:36;100883.94;;;13.20;88.18
81125;BME280;72192;52.114;5.424;2023-11-19T10:55:18;100893.91;;;13.28;88.04
81125;BME280;72192;52.114;5.424;2023-11-19T10:58:08;100881.09;;;13.36;88.51
81125;BME280;72192;52.114;5.424;2023-11-19T11:00:54;100891.78;;;13.38;87.54
81125;BME280;72192;52.114;5.424;2023-11-19T11:03:40;100874.97;;;13.42;87.06
81125;BME280;72192;52.114;5.424;2023-11-19T11:06:21;100884.13;;;13.41;87.02
81125;BME280;72192;52.114;5.424;2023-11-19T11:09:02;100892.72;;;13.45;86.97
81125;BME280;72192;52.114;5.424;2023-11-19T11:11:46;100897.63;;;13.49;87.46
81125;BME280;72192;52.114;5.424;2023-11-19T11:14:27;100898.94;;;13.54;86.38
81125;BME280;72192;52.114;5.424;2023-11-19T11:17:09;100893.13;;;13.57;86.13
81125;BME280;72192;52.114;5.424;2023-11-19T11:19:52;100887.44;;;13.52;85.51
81125;BME280;72192;52.114;5.424;2023-11-19T11:22:54;100895.09;;;13.48;86.05
81125;BME280;72192;52.114;5.424;2023-11-19T11:31:48;100871.53;;;13.26;86.65
81125;BME280;72192;52.114;5.424;2023-11-19T11:35:02;100883.16;;;13.34;87.30
81125;BME280;72192;52.114;5.424;2023-11-19T11:38:09;100883.47;;;13.39;87.18
81125;BME280;72192;52.114;5.424;2023-11-19T11:43:59;100884.56;;;13.30;87.53
81125;BME280;72192;52.114;5.424;2023-11-19T11:49:25;100881.00;;;13.30;88.30
81125;BME280;72192;52.114;5.424;2023-11-19T11:52:05;100879.47;;;13.27;87.72
81125;BME280;72192;52.114;5.424;2023-11-19T11:54:45;100880.44;;;13.34;87.33
81125;BME280;72192;52.114;5.424;2023-11-19T11:57:36;100872.31;;;13.34;86.86
81125;BME280;72192;52.114;5.424;2023-11-19T12:00:32;100875.00;;;13.34;86.75
81125;BME280;72192;52.114;5.424;2023-11-19T12:03:20;100869.13;;;13.31;86.93
81125;BME280;72192;52.114;5.424;2023-11-19T12:06:01;100868.16;;;13.24;87.26
81125;BME280;72192;52.114;5.424;2023-11-19T12:08:41;100862.56;;;13.17;87.18
81125;BME280;72192;52.114;5.424;2023-11-19T12:11:23;100862.66;;;13.09;87.75
81125;BME280;72192;52.114;5.424;2023-11-19T12:14:05;100865.88;;;13.04;88.04
81125;BME280;72192;52.114;5.424;2023-11-19T12:16:45;100859.94;;;13.09;87.97
81125;BME280;72192;52.114;5.424;2023-11-19T12:19:27;100853.44;;;13.18;88.09
81125;BME280;72192;52.114;5.424;2023-11-19T12:22:10;100846.81;;;13.20;87.21
81125;BME280;72192;52.114;5.424;2023-11-19T12:24:52;100852.09;;;13.14;87.79
81125;BME280;72192;52.114;5.424;2023-11-19T12:27:34;100839.63;;;13.05;87.08
81125;BME280;72192;52.114;5.424;2023-11-19T12:30:24;100855.91;;;12.97;87.84
81125;BME280;72192;52.114;5.424;2023-11-19T12:33:09;100862.19;;;12.97;88.35
81125;BME280;72192;52.114;5.424;2023-11-19T12:35:49;100854.59;;;12.92;88.13
81125;BME280;72192;52.114;5.424;2023-11-19T12:38:28;100854.78;;;12.91;87.93
81125;BME280;72192;52.114;5.424;2023-11-19T12:41:10;100867.31;;;12.92;87.97
81125;BME280;72192;52.114;5.424;2023-11-19T12:43:51;100860.31;;;12.98;88.28
81125;BME280;72192;52.114;5.424;2023-11-19T12:46:33;100858.25;;;13.08;87.74
81125;BME280;72192;52.114;5.424;2023-11-19T12:49:13;100871.41;;;13.19;87.62
81125;BME280;72192;52.114;5.424;2023-11-19T12:51:53;100862.25;;;13.20;87.37
81125;BME280;72192;52.114;5.424;2023-11-19T12:54:36;100862.56;;;13.17;87.84
81125;BME280;72192;52.114;5.424;2023-11-19T12:57:16;100859.84;;;13.17;87.43
81125;BME280;72192;52.114;5.424;2023-11-19T12:59:57;100867.16;;;13.16;87.49
81125;BME280;72192;52.114;5.424;2023-11-19T13:02:51;100860.03;;;13.15;87.70
81125;BME280;72192;52.114;5.424;2023-11-19T13:05:34;100855.81;;;13.13;87.51
81125;BME280;72192;52.114;5.424;2023-11-19T13:08:15;100858.13;;;13.01;91.35
81125;BME280;72192;52.114;5.424;2023-11-19T13:10:55;100855.09;;;12.65;93.96
81125;BME280;72192;52.114;5.424;2023-11-19T13:14:00;100855.22;;;12.41;95.37
81125;BME280;72192;52.114;5.424;2023-11-19T13:16:46;100856.78;;;12.27;95.87
81125;BME280;72192;52.114;5.424;2023-11-19T13:19:26;100864.06;;;12.18;97.89
81125;BME280;72192;52.114;5.424;2023-11-19T13:22:06;100850.91;;;12.07;97.30
81125;BME280;72192;52.114;5.424;2023-11-19T13:24:46;100853.16;;;11.95;99.37
81125;BME280;72192;52.114;5.424;2023-11-19T13:27:26;100858.06;;;11.75;100.00
81125;BME280;72192;52.114;5.424;2023-11-19T13:30:06;100853.66;;;11.66;100.00
81125;BME280;72192;52.114;5.424;2023-11-19T13:32:46;100850.97;;;11.66;100.00
81125;BME280;72192;52.114;5.424;2023-11-19T13:35:27;100850.13;;;11.66;100.00
81125;BME280;72192;52.114;5.424;2023-11-19T13:38:05;100837.44;;;11.66;100.00
81125;BME280;72192;52.114;5.424;2023-11-19T13:40:50;100851.47;;;11.70;100.00
81125;BME280;72192;52.114;5.424;2023-11-19T13:43:30;100843.69;;;11.75;100.00
81125;BME280;72192;52.114;5.424;2023-11-19T13:46:10;100832.38;;;11.80;100.00
81125;BME280;72192;52.114;5.424;2023-11-19T13:48:56;100844.56;;;11.84;100.00
81125;BME280;72192;52.114;5.424;2023-11-19T13:51:36;100848.59;;;11.88;100.00
81125;BME280;72192;52.114;5.424;2023-11-19T13:54:16;100837.09;;;11.86;100.00
81125;BME280;72192;52.114;5.424;2023-11-19T13:57:04;100832.72;;;11.85;99.43
81125;BME280;72192;52.114;5.424;2023-11-19T13:59:44;100836.25;;;11.85;99.93
81125;BME280;72192;52.114;5.424;2023-11-19T14:02:24;100831.69;;;11.86;100.00
81125;BME280;72192;52.114;5.424;2023-11-19T14:05:03;100848.09;;;11.84;100.00
81125;BME280;72192;52.114;5.424;2023-11-19T14:07:44;100841.50;;;11.87;100.00